KMKC/MKC METAR and TAF weather

Enter ICAO airport designator
Station Type Date Time Source
KMKC METAR 2020/09/18 22:54 UTC NOAA

KMKC 182254Z 09006KT 10SM CLR 22/09 A3022 RMK AO2 SLP230 T02220094


Station Type Date Time Source
KMKC Decoded METAR 2020/09/18 22:54 UTC NOAA

KANSAS CITY DOWNTOWN AIRPORT , MO, United States (KMKC) 39-07N 094-36W 227M
Sep 18, 2020 - 06:54 PM EDT / 2020.09.18 2254 UTC
Wind: from the E (090 degrees) at 7 MPH (6 KT):0
Visibility: 10 mile(s):0
Sky conditions: clear
Temperature: 72.0 F (22.2 C)
Dew Point: 48.9 F (9.4 C)
Relative Humidity: 44%
Pressure (altimeter): 30.22 in. Hg (1023 hPa)
ob: KMKC 182254Z 09006KT 10SM CLR 22/09 A3022 RMK AO2 SLP230 T02220094
cycle: 23

Station Type Date Time Source
KMKC TAF 2020/09/18 18:30 UTC NOAA

TAF KMKC 181728Z 1818/1918 11006KT P6SM FEW250
FM191400 14010KT P6SM SCT250

Example: see airport list